Aviation Digital Data Service (ADDS)

Output produced by METARs form (1539 UTC 21 May 2019)
found at http://www.aviationweather.gov/metar/data/
 
METAR text: VRMM 211400Z 27008KT 9999 FEW018TCU BKN120 31/26 Q1009 NOSIG
Conditions at: VRMM (MALE INTL/HULULE, MV) observed 1400 UTC 21 May 2019
Temperature: 31.0°C (88°F)
Dewpoint: 26.0°C (79°F) [RH = 75%]
Pressure (altimeter): 29.79 inches Hg (1009.0 mb)
Winds: from the W (270 degrees) at 9 MPH (8 knots; 4.1 m/s)
Visibility: 6 or more miles (10+ km)
Ceiling: 12000 feet AGL
Clouds: few clouds at 1800 feet AGL
broken clouds at 12000 feet AGL
Weather: no significant weather observed at this time

METAR text: VRMM 211300Z 27010KT 9999 FEW018 FEW019CB BKN120 31/26 Q1009 CB S NOSIG
Conditions at: VRMM (MALE INTL/HULULE, MV) observed 1300 UTC 21 May 2019
Temperature: 31.0°C (88°F)
Dewpoint: 26.0°C (79°F) [RH = 75%]
Pressure (altimeter): 29.79 inches Hg (1009.0 mb)
Winds: from the W (270 degrees) at 12 MPH (10 knots; 5.1 m/s)
Visibility: 6 or more miles (10+ km)
Ceiling: 12000 feet AGL
Clouds: few clouds at 1800 feet AGL
few clouds at 1900 feet AGL
broken clouds at 12000 feet AGL
Weather: no significant weather observed at this time

METAR text: VRMM 211200Z 26008KT 9999 FEW018TCU BKN120 31/26 Q1009 NOSIG
Conditions at: VRMM (MALE INTL/HULULE, MV) observed 1200 UTC 21 May 2019
Temperature: 31.0°C (88°F)
Dewpoint: 26.0°C (79°F) [RH = 75%]
Pressure (altimeter): 29.79 inches Hg (1009.0 mb)
Winds: from the W (260 degrees) at 9 MPH (8 knots; 4.1 m/s)
Visibility: 6 or more miles (10+ km)
Ceiling: 12000 feet AGL
Clouds: few clouds at 1800 feet AGL
broken clouds at 12000 feet AGL
Weather: no significant weather observed at this time

METAR text: VRMM 211100Z 26009KT 9999 FEW018TCU SCT120 BKN280 32/27 Q1008 NOSIG
Conditions at: VRMM (MALE INTL/HULULE, MV) observed 1100 UTC 21 May 2019
Temperature: 32.0°C (90°F)
Dewpoint: 27.0°C (81°F) [RH = 75%]
Pressure (altimeter): 29.76 inches Hg (1008.0 mb)
Winds: from the W (260 degrees) at 10 MPH (9 knots; 4.6 m/s)
Visibility: 6 or more miles (10+ km)
Ceiling: 28000 feet AGL
Clouds: few clouds at 1800 feet AGL
scattered clouds at 12000 feet AGL
broken clouds at 28000 feet AGL
Weather: no significant weather observed at this time

METAR text: VRMM 211000Z 27009KT 9999 SCT018TCU BKN280 32/26 Q1009 NOSIG
Conditions at: VRMM (MALE INTL/HULULE, MV) observed 1000 UTC 21 May 2019
Temperature: 32.0°C (90°F)
Dewpoint: 26.0°C (79°F) [RH = 71%]
Pressure (altimeter): 29.79 inches Hg (1009.0 mb)
Winds: from the W (270 degrees) at 10 MPH (9 knots; 4.6 m/s)
Visibility: 6 or more miles (10+ km)
Ceiling: 28000 feet AGL
Clouds: scattered clouds at 1800 feet AGL
broken clouds at 28000 feet AGL
Weather: no significant weather observed at this time

METAR text: VRMM 210900Z 26008KT 9999 SCT018TCU SCT280 32/26 Q1009 NOSIG
Conditions at: VRMM (MALE INTL/HULULE, MV) observed 0900 UTC 21 May 2019
Temperature: 32.0°C (90°F)
Dewpoint: 26.0°C (79°F) [RH = 71%]
Pressure (altimeter): 29.79 inches Hg (1009.0 mb)
Winds: from the W (260 degrees) at 9 MPH (8 knots; 4.1 m/s)
Visibility: 6 or more miles (10+ km)
Ceiling: at least 12,000 feet AGL
Clouds: scattered clouds at 1800 feet AGL
scattered clouds at 28000 feet AGL
Weather: no significant weather observed at this time

METAR text: VRMM 210800Z 27008KT 9999 SCT018TCU 32/26 Q1010 NOSIG
Conditions at: VRMM (MALE INTL/HULULE, MV) observed 0800 UTC 21 May 2019
Temperature: 32.0°C (90°F)
Dewpoint: 26.0°C (79°F) [RH = 71%]
Pressure (altimeter): 29.82 inches Hg (1010.0 mb)
Winds: from the W (270 degrees) at 9 MPH (8 knots; 4.1 m/s)
Visibility: 6 or more miles (10+ km)
Ceiling: at least 12,000 feet AGL
Clouds: scattered clouds at 1800 feet AGL
Weather: no significant weather observed at this time

METAR text: VRMM 210700Z 26009KT 9999 FEW018TCU 32/26 Q1011 NOSIG
Conditions at: VRMM (MALE INTL/HULULE, MV) observed 0700 UTC 21 May 2019
Temperature: 32.0°C (90°F)
Dewpoint: 26.0°C (79°F) [RH = 71%]
Pressure (altimeter): 29.85 inches Hg (1011.0 mb)
Winds: from the W (260 degrees) at 10 MPH (9 knots; 4.6 m/s)
Visibility: 6 or more miles (10+ km)
Ceiling: at least 12,000 feet AGL
Clouds: few clouds at 1800 feet AGL
Weather: no significant weather observed at this time

METAR text: VRMM 210600Z 26009KT 9999 FEW018 FEW019CB 31/26 Q1011 CB SSE NOSIG
Conditions at: VRMM (MALE INTL/HULULE, MV) observed 0600 UTC 21 May 2019
Temperature: 31.0°C (88°F)
Dewpoint: 26.0°C (79°F) [RH = 75%]
Pressure (altimeter): 29.85 inches Hg (1011.0 mb)
Winds: from the W (260 degrees) at 10 MPH (9 knots; 4.6 m/s)
Visibility: 6 or more miles (10+ km)
Ceiling: at least 12,000 feet AGL
Clouds: few clouds at 1800 feet AGL
few clouds at 1900 feet AGL
Weather: SS  (sandstorm)

METAR text: VRMM 210500Z 26008KT 9999 SCT018TCU BKN280 32/26 Q1011 TEMPO FEW018CB
Conditions at: VRMM (MALE INTL/HULULE, MV) observed 0500 UTC 21 May 2019
Temperature: 32.0°C (90°F)
Dewpoint: 26.0°C (79°F) [RH = 71%]
Pressure (altimeter): 29.85 inches Hg (1011.0 mb)
Winds: from the W (260 degrees) at 9 MPH (8 knots; 4.1 m/s)
Visibility: 6 or more miles (10+ km)
Ceiling: 28000 feet AGL
Clouds: scattered clouds at 1800 feet AGL
broken clouds at 28000 feet AGL
Weather: no significant weather observed at this time

METAR text: VRMM 210400Z 26007KT 9999 SCT018TCU 31/26 Q1011 TEMPO FEW018CB
Conditions at: VRMM (MALE INTL/HULULE, MV) observed 0400 UTC 21 May 2019
Temperature: 31.0°C (88°F)
Dewpoint: 26.0°C (79°F) [RH = 75%]
Pressure (altimeter): 29.85 inches Hg (1011.0 mb)
Winds: from the W (260 degrees) at 8 MPH (7 knots; 3.6 m/s)
Visibility: 6 or more miles (10+ km)
Ceiling: at least 12,000 feet AGL
Clouds: scattered clouds at 1800 feet AGL
Weather: no significant weather observed at this time

METAR text: VRMM 210300Z 26008KT 9999 SCT018TCU BKN280 31/26 Q1010 TEMPO FEW018CB
Conditions at: VRMM (MALE INTL/HULULE, MV) observed 0300 UTC 21 May 2019
Temperature: 31.0°C (88°F)
Dewpoint: 26.0°C (79°F) [RH = 75%]
Pressure (altimeter): 29.82 inches Hg (1010.0 mb)
Winds: from the W (260 degrees) at 9 MPH (8 knots; 4.1 m/s)
Visibility: 6 or more miles (10+ km)
Ceiling: 28000 feet AGL
Clouds: scattered clouds at 1800 feet AGL
broken clouds at 28000 feet AGL
Weather: no significant weather observed at this time

METAR text: VRMM 210200Z 26008KT 9999 SCT018TCU 30/26 Q1010 NOSIG
Conditions at: VRMM (MALE INTL/HULULE, MV) observed 0200 UTC 21 May 2019
Temperature: 30.0°C (86°F)
Dewpoint: 26.0°C (79°F) [RH = 79%]
Pressure (altimeter): 29.82 inches Hg (1010.0 mb)
Winds: from the W (260 degrees) at 9 MPH (8 knots; 4.1 m/s)
Visibility: 6 or more miles (10+ km)
Ceiling: at least 12,000 feet AGL
Clouds: scattered clouds at 1800 feet AGL
Weather: no significant weather observed at this time

METAR text: VRMM 210100Z 25007KT 9999 FEW018 FEW019CB SCT270 29/26 Q1009 CB S NOSIG
Conditions at: VRMM (MALE INTL/HULULE, MV) observed 0100 UTC 21 May 2019
Temperature: 29.0°C (84°F)
Dewpoint: 26.0°C (79°F) [RH = 84%]
Pressure (altimeter): 29.79 inches Hg (1009.0 mb)
Winds: from the WSW (250 degrees) at 8 MPH (7 knots; 3.6 m/s)
Visibility: 6 or more miles (10+ km)
Ceiling: at least 12,000 feet AGL
Clouds: few clouds at 1800 feet AGL
few clouds at 1900 feet AGL
scattered clouds at 27000 feet AGL
Weather: no significant weather observed at this time

METAR text: VRMM 210000Z 25008KT 9999 FEW018 SCT280 29/25 Q1008 NOSIG
Conditions at: VRMM (MALE INTL/HULULE, MV) observed 0000 UTC 21 May 2019
Temperature: 29.0°C (84°F)
Dewpoint: 25.0°C (77°F) [RH = 79%]
Pressure (altimeter): 29.76 inches Hg (1008.0 mb)
Winds: from the WSW (250 degrees) at 9 MPH (8 knots; 4.1 m/s)
Visibility: 6 or more miles (10+ km)
Ceiling: at least 12,000 feet AGL
Clouds: few clouds at 1800 feet AGL
scattered clouds at 28000 feet AGL
Weather: no significant weather observed at this time

METAR text: VRMM 202300Z 26008KT 9999 FEW018TCU BKN280 30/26 Q1008 NOSIG
Conditions at: VRMM (MALE INTL/HULULE, MV) observed 2300 UTC 20 May 2019
Temperature: 30.0°C (86°F)
Dewpoint: 26.0°C (79°F) [RH = 79%]
Pressure (altimeter): 29.76 inches Hg (1008.0 mb)
Winds: from the W (260 degrees) at 9 MPH (8 knots; 4.1 m/s)
Visibility: 6 or more miles (10+ km)
Ceiling: 28000 feet AGL
Clouds: few clouds at 1800 feet AGL
broken clouds at 28000 feet AGL
Weather: no significant weather observed at this time

METAR text: VRMM 202200Z 25009KT 9999 FEW018TCU BKN280 30/26 Q1008 NOSIG
Conditions at: VRMM (MALE INTL/HULULE, MV) observed 2200 UTC 20 May 2019
Temperature: 30.0°C (86°F)
Dewpoint: 26.0°C (79°F) [RH = 79%]
Pressure (altimeter): 29.76 inches Hg (1008.0 mb)
Winds: from the WSW (250 degrees) at 10 MPH (9 knots; 4.6 m/s)
Visibility: 6 or more miles (10+ km)
Ceiling: 28000 feet AGL
Clouds: few clouds at 1800 feet AGL
broken clouds at 28000 feet AGL
Weather: no significant weather observed at this time

METAR text: VRMM 202100Z 25008KT 9999 FEW018TCU BKN280 30/26 Q1009 NOSIG
Conditions at: VRMM (MALE INTL/HULULE, MV) observed 2100 UTC 20 May 2019
Temperature: 30.0°C (86°F)
Dewpoint: 26.0°C (79°F) [RH = 79%]
Pressure (altimeter): 29.79 inches Hg (1009.0 mb)
Winds: from the WSW (250 degrees) at 9 MPH (8 knots; 4.1 m/s)
Visibility: 6 or more miles (10+ km)
Ceiling: 28000 feet AGL
Clouds: few clouds at 1800 feet AGL
broken clouds at 28000 feet AGL
Weather: no significant weather observed at this time

METAR text: VRMM 202000Z 26008KT 9999 SCT018TCU BKN280 30/26 Q1010 NOSIG
Conditions at: VRMM (MALE INTL/HULULE, MV) observed 2000 UTC 20 May 2019
Temperature: 30.0°C (86°F)
Dewpoint: 26.0°C (79°F) [RH = 79%]
Pressure (altimeter): 29.82 inches Hg (1010.0 mb)
Winds: from the W (260 degrees) at 9 MPH (8 knots; 4.1 m/s)
Visibility: 6 or more miles (10+ km)
Ceiling: 28000 feet AGL
Clouds: scattered clouds at 1800 feet AGL
broken clouds at 28000 feet AGL
Weather: no significant weather observed at this time

METAR text: VRMM 201900Z 24009KT 9999 SCT018 FEW019CB BKN280 30/26 Q1010 CB W NOSIG
Conditions at: VRMM (MALE INTL/HULULE, MV) observed 1900 UTC 20 May 2019
Temperature: 30.0°C (86°F)
Dewpoint: 26.0°C (79°F) [RH = 79%]
Pressure (altimeter): 29.82 inches Hg (1010.0 mb)
Winds: from the WSW (240 degrees) at 10 MPH (9 knots; 4.6 m/s)
Visibility: 6 or more miles (10+ km)
Ceiling: 28000 feet AGL
Clouds: scattered clouds at 1800 feet AGL
few clouds at 1900 feet AGL
broken clouds at 28000 feet AGL
Weather: no significant weather observed at this time

METAR text: VRMM 201800Z 23007KT 9999 FEW018 FEW019CB BKN280 29/26 Q1011 CB S NOSIG
Conditions at: VRMM (MALE INTL/HULULE, MV) observed 1800 UTC 20 May 2019
Temperature: 29.0°C (84°F)
Dewpoint: 26.0°C (79°F) [RH = 84%]
Pressure (altimeter): 29.85 inches Hg (1011.0 mb)
Winds: from the SW (230 degrees) at 8 MPH (7 knots; 3.6 m/s)
Visibility: 6 or more miles (10+ km)
Ceiling: 28000 feet AGL
Clouds: few clouds at 1800 feet AGL
few clouds at 1900 feet AGL
broken clouds at 28000 feet AGL
Weather: no significant weather observed at this time

METAR text: VRMM 201700Z 23007KT 9999 FEW018TCU BKN280 30/25 Q1010 NOSIG
Conditions at: VRMM (MALE INTL/HULULE, MV) observed 1700 UTC 20 May 2019
Temperature: 30.0°C (86°F)
Dewpoint: 25.0°C (77°F) [RH = 75%]
Pressure (altimeter): 29.82 inches Hg (1010.0 mb)
Winds: from the SW (230 degrees) at 8 MPH (7 knots; 3.6 m/s)
Visibility: 6 or more miles (10+ km)
Ceiling: 28000 feet AGL
Clouds: few clouds at 1800 feet AGL
broken clouds at 28000 feet AGL
Weather: no significant weather observed at this time

METAR text: VRMM 201600Z 25007KT 9999 FEW018TCU BKN280 30/25 Q1010 NOSIG
Conditions at: VRMM (MALE INTL/HULULE, MV) observed 1600 UTC 20 May 2019
Temperature: 30.0°C (86°F)
Dewpoint: 25.0°C (77°F) [RH = 75%]
Pressure (altimeter): 29.82 inches Hg (1010.0 mb)
Winds: from the WSW (250 degrees) at 8 MPH (7 knots; 3.6 m/s)
Visibility: 6 or more miles (10+ km)
Ceiling: 28000 feet AGL
Clouds: few clouds at 1800 feet AGL
broken clouds at 28000 feet AGL
Weather: no significant weather observed at this time

METAR text: VRMM 201500Z 22007KT 9999 FEW018TCU BKN280 30/25 Q1010 NOSIG
Conditions at: VRMM (MALE INTL/HULULE, MV) observed 1500 UTC 20 May 2019
Temperature: 30.0°C (86°F)
Dewpoint: 25.0°C (77°F) [RH = 75%]
Pressure (altimeter): 29.82 inches Hg (1010.0 mb)
Winds: from the SW (220 degrees) at 8 MPH (7 knots; 3.6 m/s)
Visibility: 6 or more miles (10+ km)
Ceiling: 28000 feet AGL
Clouds: few clouds at 1800 feet AGL
broken clouds at 28000 feet AGL
Weather: no significant weather observed at this time

METAR text: VRMM 201400Z 22008KT 9999 FEW018TCU BKN280 30/25 Q1009 NOSIG
Conditions at: VRMM (MALE INTL/HULULE, MV) observed 1400 UTC 20 May 2019
Temperature: 30.0°C (86°F)
Dewpoint: 25.0°C (77°F) [RH = 75%]
Pressure (altimeter): 29.79 inches Hg (1009.0 mb)
Winds: from the SW (220 degrees) at 9 MPH (8 knots; 4.1 m/s)
Visibility: 6 or more miles (10+ km)
Ceiling: 28000 feet AGL
Clouds: few clouds at 1800 feet AGL
broken clouds at 28000 feet AGL
Weather: no significant weather observed at this time

METAR text: VRMM 201300Z 22006KT 9999 SCT018TCU BKN280 30/25 Q1008 NOSIG
Conditions at: VRMM (MALE INTL/HULULE, MV) observed 1300 UTC 20 May 2019
Temperature: 30.0°C (86°F)
Dewpoint: 25.0°C (77°F) [RH = 75%]
Pressure (altimeter): 29.76 inches Hg (1008.0 mb)
Winds: from the SW (220 degrees) at 7 MPH (6 knots; 3.1 m/s)
Visibility: 6 or more miles (10+ km)
Ceiling: 28000 feet AGL
Clouds: scattered clouds at 1800 feet AGL
broken clouds at 28000 feet AGL
Weather: no significant weather observed at this time

METAR text: VRMM 201200Z 25007KT 9999 FEW018TCU SCT280 31/25 Q1008 NOSIG
Conditions at: VRMM (MALE INTL/HULULE, MV) observed 1200 UTC 20 May 2019
Temperature: 31.0°C (88°F)
Dewpoint: 25.0°C (77°F) [RH = 71%]
Pressure (altimeter): 29.76 inches Hg (1008.0 mb)
Winds: from the WSW (250 degrees) at 8 MPH (7 knots; 3.6 m/s)
Visibility: 6 or more miles (10+ km)
Ceiling: at least 12,000 feet AGL
Clouds: few clouds at 1800 feet AGL
scattered clouds at 28000 feet AGL
Weather: no significant weather observed at this time

METAR text: VRMM 201100Z 25005KT 9999 SCT018TCU SCT270 32/25 Q1008 NOSIG
Conditions at: VRMM (MALE INTL/HULULE, MV) observed 1100 UTC 20 May 2019
Temperature: 32.0°C (90°F)
Dewpoint: 25.0°C (77°F) [RH = 67%]
Pressure (altimeter): 29.76 inches Hg (1008.0 mb)
Winds: from the WSW (250 degrees) at 6 MPH (5 knots; 2.6 m/s)
Visibility: 6 or more miles (10+ km)
Ceiling: at least 12,000 feet AGL
Clouds: scattered clouds at 1800 feet AGL
scattered clouds at 27000 feet AGL
Weather: no significant weather observed at this time

METAR text: VRMM 201000Z 24005KT 9999 FEW018TCU BKN270 32/25 Q1008 TEMPO FEW018CB
Conditions at: VRMM (MALE INTL/HULULE, MV) observed 1000 UTC 20 May 2019
Temperature: 32.0°C (90°F)
Dewpoint: 25.0°C (77°F) [RH = 67%]
Pressure (altimeter): 29.76 inches Hg (1008.0 mb)
Winds: from the WSW (240 degrees) at 6 MPH (5 knots; 2.6 m/s)
Visibility: 6 or more miles (10+ km)
Ceiling: 27000 feet AGL
Clouds: few clouds at 1800 feet AGL
broken clouds at 27000 feet AGL
Weather: no significant weather observed at this time

METAR text: VRMM 200900Z 24004KT 9999 FEW019 BKN280 32/27 Q1009 NOSIG
Conditions at: VRMM (MALE INTL/HULULE, MV) observed 0900 UTC 20 May 2019
Temperature: 32.0°C (90°F)
Dewpoint: 27.0°C (81°F) [RH = 75%]
Pressure (altimeter): 29.79 inches Hg (1009.0 mb)
Winds: from the WSW (240 degrees) at 5 MPH (4 knots; 2.1 m/s)
Visibility: 6 or more miles (10+ km)
Ceiling: 28000 feet AGL
Clouds: few clouds at 1900 feet AGL
broken clouds at 28000 feet AGL
Weather: no significant weather observed at this time

METAR text: VRMM 200800Z 25005KT 9999 FEW019 BKN280 31/25 Q1010 NOSIG
Conditions at: VRMM (MALE INTL/HULULE, MV) observed 0800 UTC 20 May 2019
Temperature: 31.0°C (88°F)
Dewpoint: 25.0°C (77°F) [RH = 71%]
Pressure (altimeter): 29.82 inches Hg (1010.0 mb)
Winds: from the WSW (250 degrees) at 6 MPH (5 knots; 2.6 m/s)
Visibility: 6 or more miles (10+ km)
Ceiling: 28000 feet AGL
Clouds: few clouds at 1900 feet AGL
broken clouds at 28000 feet AGL
Weather: no significant weather observed at this time

METAR text: VRMM 200700Z 24007KT 9999 FEW018 FEW019CB BKN270 30/24 Q1010 CB SE NOSIG
Conditions at: VRMM (MALE INTL/HULULE, MV) observed 0700 UTC 20 May 2019
Temperature: 30.0°C (86°F)
Dewpoint: 24.0°C (75°F) [RH = 70%]
Pressure (altimeter): 29.82 inches Hg (1010.0 mb)
Winds: from the WSW (240 degrees) at 8 MPH (7 knots; 3.6 m/s)
Visibility: 6 or more miles (10+ km)
Ceiling: 27000 feet AGL
Clouds: few clouds at 1800 feet AGL
few clouds at 1900 feet AGL
broken clouds at 27000 feet AGL
Weather: no significant weather observed at this time

METAR text: VRMM 200600Z 31003KT 9999 FEW018 BKN270 30/24 Q1011 TEMPO FEW018CB
Conditions at: VRMM (MALE INTL/HULULE, MV) observed 0600 UTC 20 May 2019
Temperature: 30.0°C (86°F)
Dewpoint: 24.0°C (75°F) [RH = 70%]
Pressure (altimeter): 29.85 inches Hg (1011.0 mb)
Winds: from the NW (310 degrees) at 3 MPH (3 knots; 1.5 m/s)
Visibility: 6 or more miles (10+ km)
Ceiling: 27000 feet AGL
Clouds: few clouds at 1800 feet AGL
broken clouds at 27000 feet AGL
Weather: no significant weather observed at this time

METAR text: VRMM 200500Z 30003KT 9999 FEW018 BKN120 30/24 Q1011 TEMPO FEW018CB
Conditions at: VRMM (MALE INTL/HULULE, MV) observed 0500 UTC 20 May 2019
Temperature: 30.0°C (86°F)
Dewpoint: 24.0°C (75°F) [RH = 70%]
Pressure (altimeter): 29.85 inches Hg (1011.0 mb)
Winds: from the WNW (300 degrees) at 3 MPH (3 knots; 1.5 m/s)
Visibility: 6 or more miles (10+ km)
Ceiling: 12000 feet AGL
Clouds: few clouds at 1800 feet AGL
broken clouds at 12000 feet AGL
Weather: no significant weather observed at this time

METAR text: VRMM 200400Z 24006KT 9999 FEW018 SCT110 BKN270 29/25 Q1011 TEMPO FEW018CB
Conditions at: VRMM (MALE INTL/HULULE, MV) observed 0400 UTC 20 May 2019
Temperature: 29.0°C (84°F)
Dewpoint: 25.0°C (77°F) [RH = 79%]
Pressure (altimeter): 29.85 inches Hg (1011.0 mb)
Winds: from the WSW (240 degrees) at 7 MPH (6 knots; 3.1 m/s)
Visibility: 6 or more miles (10+ km)
Ceiling: 27000 feet AGL
Clouds: few clouds at 1800 feet AGL
scattered clouds at 11000 feet AGL
broken clouds at 27000 feet AGL
Weather: no significant weather observed at this time

Forecast for: VRMM (MALE INTL/HULULE, MV)
Text: TAF VRMM 211100Z 2112/2218 27010KT 9999 FEW018TCU
Forecast period: 1200 UTC 21 May 2019 to 1800 UTC 22 May 2019
Forecast type: FROM: standard forecast or significant change
Winds: from the W (270 degrees) at 12 MPH (10 knots; 5.1 m/s)
Visibility: 6 or more miles 10+ km)
Ceiling: at least 12,000 feet AGL
Clouds: few clouds at 1800 feet AGL
Weather: no significant weather forecast for this period
Text: TEMPO 2113/2118 5000 TSRA SCT017CB
Forecast period: 1300 to 1800 UTC 21 May 2019
Forecast type: TEMPORARY: The following changes expected for less than half the time period
Visibility: 3 miles (5 km)
Ceiling: at least 12,000 feet AGL
Clouds: scattered clouds at 1700 feet AGL
Weather: TSRA  (rain associated with thunderstorm(s))